Marion, Virginia
Current Conditions -  °F | °C
As of 6:55 AM on Saturday 25 Oct 2014 (Local Time) from KMKJ Reporting Station
Clear Clear  
Wind Chill: 31°   Ceiling: Unl
Heat Index: 38°   Visibility: 10mi
Dew Point: 36°   Wind: 9mph
Humidity: 93%   Direction: 250°WSW
Pressure: 30.1"   Gusts: NA
Location:  36.83°N, 81.52°W
Report Text: KMKJ 251055Z AUTO 25008KT 10SM CLR 03/02 A3010 RMK AO2 T00330023
Loading
Personal Weather Stations






























Interactive Weather Map
Tropical Storm Tracking
New forecast layout! Learn more

10-Day Weather Forecast

Advertisements
Track Severe Weather on mobile